createdAt,value
2018-05-07T00:00:50.914Z,0.00
2018-05-07T00:01:50.987Z,0.00
2018-05-07T00:02:51.090Z,0.00
2018-05-07T00:03:51.116Z,0.00
2018-05-07T00:04:51.172Z,0.00
2018-05-07T00:05:51.324Z,0.00
2018-05-07T00:06:51.299Z,0.00
2018-05-07T00:07:51.444Z,0.00
2018-05-07T00:08:51.439Z,0.00
2018-05-07T00:09:51.507Z,0.00
2018-05-07T00:10:51.559Z,0.00
2018-05-07T00:11:51.651Z,0.00
2018-05-07T00:12:52.291Z,0.00
2018-05-07T00:13:51.775Z,0.00
2018-05-07T00:14:51.831Z,0.00
2018-05-07T00:15:51.902Z,0.00
2018-05-07T00:16:51.951Z,0.00
2018-05-07T00:17:52.052Z,0.00
2018-05-07T00:18:52.099Z,0.00
2018-05-07T00:19:52.159Z,0.00
2018-05-07T00:20:52.208Z,0.00
2018-05-07T00:21:52.279Z,0.00
2018-05-07T00:22:52.512Z,0.00
2018-05-07T00:23:52.404Z,0.00
2018-05-07T00:24:52.478Z,0.00
2018-05-07T00:25:52.553Z,0.00
2018-05-07T00:26:52.616Z,0.00
2018-05-07T00:27:52.676Z,0.00
2018-05-07T00:28:52.760Z,0.00
2018-05-07T00:29:52.800Z,0.00
2018-05-07T00:30:52.863Z,0.00
2018-05-07T00:31:52.936Z,0.00
2018-05-07T00:32:53.014Z,0.00
2018-05-07T00:33:53.080Z,0.00
2018-05-07T00:34:53.132Z,0.00
2018-05-07T00:35:53.192Z,0.00
2018-05-07T00:36:53.260Z,0.00
2018-05-07T00:37:53.366Z,0.00
2018-05-07T00:38:53.396Z,0.00
2018-05-07T00:39:53.448Z,0.00
2018-05-07T00:40:53.520Z,0.00
2018-05-07T00:41:53.588Z,0.00
2018-05-07T00:42:53.656Z,0.00
2018-05-07T00:43:53.724Z,0.00
2018-05-07T00:44:53.772Z,0.00
2018-05-07T00:45:53.841Z,0.00
2018-05-07T00:46:53.896Z,0.00
2018-05-07T00:47:53.973Z,0.00
2018-05-07T00:48:54.065Z,0.00
2018-05-07T00:49:54.096Z,0.00
2018-05-07T00:50:54.169Z,0.00
2018-05-07T00:51:54.224Z,0.00
2018-05-07T00:52:54.304Z,0.00
2018-05-07T00:53:54.372Z,0.00
2018-05-07T00:54:54.425Z,0.00
2018-05-07T00:55:54.484Z,0.00
2018-05-07T00:56:54.550Z,0.00
2018-05-07T00:57:54.621Z,0.00
2018-05-07T00:58:54.701Z,0.00
2018-05-07T00:59:54.749Z,0.00
2018-05-07T01:00:54.805Z,0.00
2018-05-07T01:01:54.873Z,0.00
2018-05-07T01:02:54.937Z,0.00
2018-05-07T01:03:55.013Z,0.00
2018-05-07T01:04:55.077Z,0.00
2018-05-07T01:05:55.130Z,0.00
2018-05-07T01:06:55.200Z,0.00
2018-05-07T01:07:55.262Z,0.00
2018-05-07T01:08:55.333Z,0.00
2018-05-07T01:09:55.393Z,0.00
2018-05-07T01:10:55.453Z,0.00
2018-05-07T01:11:55.520Z,0.00
2018-05-07T01:12:55.581Z,0.00
2018-05-07T01:13:55.658Z,0.00
2018-05-07T01:14:55.722Z,0.00
2018-05-07T01:15:55.778Z,0.00
2018-05-07T01:16:55.842Z,0.00
2018-05-07T01:17:55.906Z,0.00
2018-05-07T01:18:55.978Z,0.00
2018-05-07T01:19:56.042Z,0.00
2018-05-07T01:20:56.102Z,0.00
2018-05-07T01:21:56.166Z,0.00
2018-05-07T01:22:56.230Z,0.00
2018-05-07T01:23:56.310Z,0.00
2018-05-07T01:24:56.358Z,0.00
2018-05-07T01:25:56.422Z,0.00
2018-05-07T01:26:56.496Z,0.00
2018-05-07T01:27:56.554Z,0.00
2018-05-07T01:28:56.622Z,0.00
2018-05-07T01:29:56.686Z,0.00
2018-05-07T01:30:56.746Z,0.00
2018-05-07T01:31:56.811Z,0.00
2018-05-07T01:32:56.875Z,0.00
2018-05-07T01:33:56.950Z,0.00
2018-05-07T01:34:57.010Z,0.00
2018-05-07T01:35:57.067Z,0.00
2018-05-07T01:36:57.135Z,0.00
2018-05-07T01:37:57.198Z,0.00
2018-05-07T01:38:57.451Z,0.00
2018-05-07T01:39:57.327Z,0.00
2018-05-07T01:40:57.391Z,0.00
2018-05-07T01:41:57.456Z,0.00
2018-05-07T01:42:57.519Z,0.00
2018-05-07T01:43:57.641Z,0.00
2018-05-07T01:44:57.656Z,0.00
2018-05-07T01:45:57.715Z,0.00
2018-05-07T01:46:57.783Z,0.00
2018-05-07T01:47:57.848Z,0.00
2018-05-07T01:48:57.911Z,0.00
2018-05-07T01:49:57.980Z,0.00
2018-05-07T01:50:58.036Z,0.00
2018-05-07T01:51:58.104Z,0.00
2018-05-07T01:52:58.169Z,0.00
2018-05-07T01:53:58.392Z,0.00
2018-05-07T01:54:58.296Z,0.00
2018-05-07T01:55:58.359Z,0.00
2018-05-07T01:56:58.423Z,0.00
2018-05-07T01:57:58.488Z,0.00
2018-05-07T01:58:58.560Z,0.00
2018-05-07T01:59:58.620Z,0.00
2018-05-07T02:00:58.680Z,0.00
2018-05-07T02:01:58.744Z,0.00
2018-05-07T02:02:58.808Z,0.00
2018-05-07T02:03:58.880Z,0.00
2018-05-07T02:04:58.944Z,0.00
2018-05-07T02:05:59.005Z,0.00
2018-05-07T02:06:59.072Z,0.00
2018-05-07T02:07:59.132Z,0.00
2018-05-07T02:08:59.216Z,0.00
2018-05-07T02:09:59.260Z,0.00
2018-05-07T02:10:59.329Z,0.00
2018-05-07T02:11:59.388Z,0.00
2018-05-07T02:12:59.453Z,0.00
2018-05-07T02:13:59.524Z,0.00
2018-05-07T02:14:59.589Z,0.00
2018-05-07T02:15:59.645Z,0.00
2018-05-07T02:16:59.708Z,0.00
2018-05-07T02:17:59.776Z,0.00
2018-05-07T02:18:59.844Z,0.00
2018-05-07T02:19:59.909Z,0.00
2018-05-07T02:20:59.965Z,0.00
2018-05-07T02:22:00.033Z,0.00
2018-05-07T02:23:00.097Z,0.00
2018-05-07T02:24:00.173Z,0.00
2018-05-07T02:25:00.224Z,0.00
2018-05-07T02:26:00.320Z,0.00
2018-05-07T02:27:00.353Z,0.00
2018-05-07T02:28:00.417Z,0.00
2018-05-07T02:29:00.489Z,0.00
2018-05-07T02:30:00.555Z,0.00
2018-05-07T02:31:00.609Z,0.00
2018-05-07T02:32:00.673Z,0.00
2018-05-07T02:33:00.737Z,0.00
2018-05-07T02:34:00.809Z,0.00
2018-05-07T02:35:00.877Z,0.00
2018-05-07T02:36:00.929Z,0.00
2018-05-07T02:37:01.007Z,0.00
2018-05-07T02:38:01.058Z,0.00
2018-05-07T02:39:01.342Z,0.00
2018-05-07T02:40:01.186Z,0.00
2018-05-07T02:41:01.249Z,0.00
2018-05-07T02:42:01.318Z,0.00
2018-05-07T02:43:01.382Z,0.00
2018-05-07T02:44:01.450Z,0.00
2018-05-07T02:45:01.514Z,0.00
2018-05-07T02:46:01.574Z,0.00
2018-05-07T02:47:01.642Z,0.00
2018-05-07T02:48:01.705Z,0.00
2018-05-07T02:49:01.769Z,0.00
2018-05-07T02:50:01.839Z,0.00
2018-05-07T02:51:01.896Z,0.00
2018-05-07T02:52:01.964Z,0.00
2018-05-07T02:53:02.022Z,0.00
2018-05-07T02:54:02.198Z,0.00
2018-05-07T02:55:02.153Z,0.00
2018-05-07T02:56:02.215Z,0.00
2018-05-07T02:57:02.278Z,0.00
2018-05-07T02:58:02.342Z,0.00
2018-05-07T02:59:02.415Z,0.00
2018-05-07T03:00:02.475Z,0.00
2018-05-07T03:01:02.534Z,0.00
2018-05-07T03:02:02.601Z,0.00
2018-05-07T03:03:02.670Z,0.00
2018-05-07T03:04:02.731Z,0.00
2018-05-07T03:05:02.794Z,0.00
2018-05-07T03:06:02.855Z,0.00
2018-05-07T03:07:02.918Z,0.00
2018-05-07T03:08:02.982Z,0.00
2018-05-07T03:09:03.050Z,0.00
2018-05-07T03:10:03.115Z,0.00
2018-05-07T03:11:03.175Z,0.00
2018-05-07T03:12:03.252Z,0.00
2018-05-07T03:13:03.306Z,0.00
2018-05-07T03:14:03.518Z,0.00
2018-05-07T03:15:03.438Z,0.00
2018-05-07T03:16:03.494Z,0.00
2018-05-07T03:17:03.562Z,0.00
2018-05-07T03:18:03.622Z,0.00
2018-05-07T03:19:03.690Z,4.00
2018-05-07T03:20:03.759Z,0.00
2018-05-07T03:21:03.815Z,0.00
2018-05-07T03:22:03.879Z,4.00
2018-05-07T03:23:03.943Z,0.00
2018-05-07T03:24:04.011Z,4.00
2018-05-07T03:25:04.075Z,4.00
2018-05-07T03:26:04.134Z,4.00
2018-05-07T03:27:04.423Z,4.00
2018-05-07T03:28:04.258Z,8.00
2018-05-07T03:29:04.481Z,8.00
2018-05-07T03:30:04.387Z,8.00
2018-05-07T03:31:04.455Z,8.00
2018-05-07T03:32:04.515Z,8.00
2018-05-07T03:33:04.582Z,12.00
2018-05-07T03:34:04.651Z,12.00
2018-05-07T03:35:04.807Z,12.00
2018-05-07T03:36:04.771Z,16.00
2018-05-07T03:37:04.835Z,20.00
2018-05-07T03:38:04.899Z,24.00
2018-05-07T03:39:04.973Z,24.00
2018-05-07T03:40:05.036Z,28.00
2018-05-07T03:41:05.092Z,32.00
2018-05-07T03:42:05.156Z,36.00
2018-05-07T03:43:05.219Z,40.00
2018-05-07T03:44:05.288Z,44.00
2018-05-07T03:45:05.368Z,52.00
2018-05-07T03:46:05.411Z,56.00
2018-05-07T03:47:05.475Z,60.00
2018-05-07T03:48:05.540Z,68.00
2018-05-07T03:49:05.604Z,76.00
2018-05-07T03:50:05.676Z,84.00
2018-05-07T03:51:05.740Z,96.00
2018-05-07T03:52:05.792Z,100.00
2018-05-07T03:53:05.856Z,108.00
2018-05-07T03:54:05.920Z,120.00
2018-05-07T03:55:05.992Z,132.00
2018-05-07T03:56:06.056Z,144.00
2018-05-07T03:57:06.112Z,156.00
2018-05-07T03:58:06.176Z,168.00
2018-05-07T03:59:06.240Z,180.00
2018-05-07T04:00:06.304Z,192.00
2018-05-07T04:01:06.520Z,204.00
2018-05-07T04:02:06.433Z,220.00
2018-05-07T04:03:06.496Z,236.00
2018-05-07T04:04:06.565Z,252.00
2018-05-07T04:05:06.624Z,268.00
2018-05-07T04:06:06.693Z,284.00
2018-05-07T04:07:06.765Z,300.00
2018-05-07T04:08:06.813Z,320.00
2018-05-07T04:09:06.876Z,336.00
2018-05-07T04:10:06.944Z,352.00
2018-05-07T04:11:07.014Z,372.00
2018-05-07T04:12:07.077Z,388.00
2018-05-07T04:13:07.180Z,408.00
2018-05-07T04:14:07.197Z,424.00
2018-05-07T04:15:07.266Z,444.00
2018-05-07T04:16:07.481Z,464.00
2018-05-07T04:17:07.389Z,484.00
2018-05-07T04:18:07.453Z,504.00
2018-05-07T04:19:07.517Z,520.00
2018-05-07T04:20:07.581Z,540.00
2018-05-07T04:21:07.649Z,560.00
2018-05-07T04:22:07.750Z,584.00
2018-05-07T04:23:07.773Z,604.00
2018-05-07T04:24:07.834Z,620.00
2018-05-07T04:25:07.897Z,644.00
2018-05-07T04:26:07.969Z,660.00
2018-05-07T04:27:08.033Z,680.00
2018-05-07T04:28:08.089Z,700.00
2018-05-07T04:29:08.153Z,716.00
2018-05-07T04:30:08.218Z,736.00
2018-05-07T04:31:08.434Z,752.00
2018-05-07T04:32:08.350Z,772.00
2018-05-07T04:33:08.410Z,792.00
2018-05-07T04:34:08.473Z,812.00
2018-05-07T04:35:08.540Z,828.00
2018-05-07T04:36:08.605Z,848.00
2018-05-07T04:37:08.669Z,864.00
2018-05-07T04:38:08.730Z,884.00
2018-05-07T04:39:08.798Z,900.00
2018-05-07T04:40:08.854Z,916.00
2018-05-07T04:41:08.929Z,936.00
2018-05-07T04:42:09.206Z,952.00
2018-05-07T04:43:09.074Z,968.00
2018-05-07T04:44:09.110Z,984.00
2018-05-07T04:45:09.174Z,996.00
2018-05-07T04:46:09.298Z,1016.00
2018-05-07T04:47:09.302Z,1032.00
2018-05-07T04:48:09.366Z,1048.00
2018-05-07T04:49:09.434Z,1064.00
2018-05-07T04:50:09.494Z,1076.00
2018-05-07T04:51:09.566Z,1096.00
2018-05-07T04:52:09.630Z,1112.00
2018-05-07T04:53:09.686Z,1124.00
2018-05-07T04:54:09.754Z,1144.00
2018-05-07T04:55:09.846Z,1156.00
2018-05-07T04:56:09.891Z,1172.00
2018-05-07T04:57:09.947Z,1184.00
2018-05-07T04:58:10.006Z,1200.00
2018-05-07T04:59:10.066Z,1216.00
2018-05-07T05:00:10.130Z,1232.00
2018-05-07T05:01:10.442Z,1244.00
2018-05-07T05:02:10.259Z,1256.00
2018-05-07T05:03:10.323Z,1272.00
2018-05-07T05:04:10.386Z,1284.00
2018-05-07T05:05:10.451Z,1296.00
2018-05-07T05:06:10.530Z,1312.00
2018-05-07T05:07:10.643Z,1328.00
2018-05-07T05:08:10.643Z,1340.00
2018-05-07T05:09:10.711Z,1352.00
2018-05-07T05:10:10.772Z,1364.00
2018-05-07T05:11:10.843Z,1380.00
2018-05-07T05:12:10.927Z,1392.00
2018-05-07T05:13:10.963Z,1404.00
2018-05-07T05:14:11.031Z,1420.00
2018-05-07T05:15:11.095Z,1432.00
2018-05-07T05:16:11.267Z,1444.00
2018-05-07T05:17:11.219Z,1456.00
2018-05-07T05:18:11.283Z,1472.00
2018-05-07T05:19:11.385Z,1484.00
2018-05-07T05:20:11.412Z,1496.00
2018-05-07T05:21:11.498Z,1512.00
2018-05-07T05:22:11.556Z,1520.00
2018-05-07T05:23:11.603Z,1532.00
2018-05-07T05:24:11.668Z,1548.00
2018-05-07T05:25:11.731Z,1556.00
2018-05-07T05:26:11.799Z,1568.00
2018-05-07T05:27:11.864Z,1584.00
2018-05-07T05:28:11.923Z,1592.00
2018-05-07T05:29:11.988Z,1608.00
2018-05-07T05:30:12.052Z,1620.00
2018-05-07T05:31:12.160Z,1632.00
2018-05-07T05:32:12.176Z,1648.00
2018-05-07T05:33:12.256Z,1656.00
2018-05-07T05:34:12.312Z,1668.00
2018-05-07T05:35:12.372Z,1680.00
2018-05-07T05:36:12.448Z,1696.00
2018-05-07T05:37:12.560Z,1708.00
2018-05-07T05:38:12.569Z,1716.00
2018-05-07T05:39:12.633Z,1732.00
2018-05-07T05:40:12.692Z,1744.00
2018-05-07T05:41:12.768Z,1760.00
2018-05-07T05:42:12.825Z,1768.00
2018-05-07T05:43:12.889Z,1780.00
2018-05-07T05:44:12.953Z,1792.00
2018-05-07T05:45:13.012Z,1800.00
2018-05-07T05:46:13.076Z,1816.00
2018-05-07T05:47:13.301Z,1824.00
2018-05-07T05:48:13.213Z,1836.00
2018-05-07T05:49:13.273Z,1848.00
2018-05-07T05:50:13.385Z,1860.00
2018-05-07T05:51:13.435Z,1872.00
2018-05-07T05:52:13.466Z,1884.00
2018-05-07T05:53:13.545Z,1892.00
2018-05-07T05:54:13.593Z,1900.00
2018-05-07T05:55:13.653Z,1916.00
2018-05-07T05:56:13.794Z,1924.00
2018-05-07T05:57:13.797Z,1936.00
2018-05-07T05:58:13.866Z,1952.00
2018-05-07T05:59:13.918Z,1960.00
2018-05-07T06:00:13.981Z,1976.00
2018-05-07T06:01:14.051Z,1984.00
2018-05-07T06:02:14.143Z,2000.00
2018-05-07T06:03:14.169Z,2016.00
2018-05-07T06:04:14.241Z,2028.00
2018-05-07T06:05:14.305Z,2036.00
2018-05-07T06:06:14.366Z,2052.00
2018-05-07T06:07:14.441Z,2064.00
2018-05-07T06:08:14.501Z,2076.00
2018-05-07T06:09:14.558Z,2084.00
2018-05-07T06:10:14.628Z,2100.00
2018-05-07T06:11:14.686Z,2116.00
2018-05-07T06:12:14.762Z,2128.00
2018-05-07T06:13:14.829Z,2144.00
2018-05-07T06:14:14.885Z,2160.00
2018-05-07T06:15:14.957Z,2176.00
2018-05-07T06:16:15.014Z,2192.00
2018-05-07T06:17:15.118Z,2208.00
2018-05-07T06:18:15.146Z,2220.00
2018-05-07T06:19:15.210Z,2236.00
2018-05-07T06:20:15.274Z,2248.00
2018-05-07T06:21:15.422Z,2264.00
2018-05-07T06:22:15.410Z,2276.00
2018-05-07T06:23:15.474Z,2292.00
2018-05-07T06:24:15.531Z,2312.00
2018-05-07T06:25:15.598Z,2328.00
2018-05-07T06:26:15.663Z,2348.00
2018-05-07T06:27:15.752Z,2372.00
2018-05-07T06:28:15.799Z,2392.00
2018-05-07T06:29:15.855Z,2416.00
2018-05-07T06:30:15.928Z,2436.00
2018-05-07T06:31:15.987Z,2464.00
2018-05-07T06:32:16.076Z,2492.00
2018-05-07T06:33:16.131Z,2532.00
2018-05-07T06:34:16.186Z,2568.00
2018-05-07T06:35:16.248Z,2604.00
2018-05-07T06:36:16.311Z,8132.00
2018-05-07T06:37:16.387Z,35776.00
2018-05-07T06:38:16.447Z,59776.00
2018-05-07T06:39:16.507Z,65952.00
2018-05-07T06:40:16.575Z,64512.00
2018-05-07T06:41:16.644Z,63520.00
2018-05-07T06:42:16.715Z,63968.00
2018-05-07T06:43:16.787Z,64096.00
2018-05-07T06:44:16.848Z,64672.00
2018-05-07T06:45:16.919Z,65024.00
2018-05-07T06:46:16.987Z,64288.00
2018-05-07T06:47:17.068Z,63264.00
2018-05-07T06:48:17.140Z,61184.00
2018-05-07T06:49:17.203Z,61632.00
2018-05-07T06:50:17.275Z,62304.00
2018-05-07T06:51:17.354Z,60992.00
2018-05-07T06:52:17.444Z,59968.00
2018-05-07T06:53:17.503Z,56032.00
2018-05-07T06:54:17.572Z,56032.00
2018-05-07T06:55:17.648Z,59264.00
2018-05-07T06:56:17.748Z,59328.00
2018-05-07T06:57:17.816Z,58432.00
2018-05-07T06:58:17.888Z,58112.00
2018-05-07T06:59:17.957Z,57216.00
2018-05-07T07:00:18.029Z,58656.00
2018-05-07T07:01:18.104Z,56832.00
2018-05-07T07:02:18.317Z,57312.00
2018-05-07T07:03:18.264Z,60576.00
2018-05-07T07:04:18.341Z,60384.00
2018-05-07T07:05:18.421Z,59488.00
2018-05-07T07:06:18.500Z,60160.00
2018-05-07T07:07:18.590Z,61920.00
2018-05-07T07:08:18.849Z,56160.00
2018-05-07T07:09:18.737Z,63360.00
2018-05-07T07:10:18.817Z,59552.00
2018-05-07T07:11:18.925Z,55936.00
2018-05-07T07:12:20.909Z,61920.00
2018-05-07T07:13:20.877Z,62400.00
2018-05-07T07:14:19.173Z,57792.00
2018-05-07T07:15:19.225Z,59968.00
2018-05-07T07:16:19.306Z,62848.00
2018-05-07T07:17:19.384Z,60128.00
2018-05-07T07:18:19.497Z,61024.00
2018-05-07T07:19:19.544Z,62688.00
2018-05-07T07:20:19.625Z,60000.00
2018-05-07T07:21:19.753Z,61536.00
2018-05-07T07:22:19.805Z,62720.00
2018-05-07T07:23:19.985Z,62400.00
2018-05-07T07:24:19.973Z,61472.00
2018-05-07T07:25:20.061Z,62464.00
2018-05-07T07:26:20.149Z,67232.00
2018-05-07T07:27:20.243Z,84512.00
2018-05-07T07:28:20.366Z,82400.00
2018-05-07T07:29:20.593Z,46912.00
2018-05-07T07:30:20.459Z,38336.00
2018-05-07T07:31:20.565Z,46304.00
2018-05-07T07:32:20.629Z,60768.00
2018-05-07T07:33:20.697Z,64704.00
2018-05-07T07:34:20.785Z,52192.00
2018-05-07T07:35:20.885Z,33984.00
2018-05-07T07:36:20.958Z,23968.00
2018-05-07T07:37:21.025Z,20736.00
2018-05-07T07:38:21.105Z,18592.00
2018-05-07T07:39:21.333Z,15776.00
2018-05-07T07:40:21.274Z,14304.00
2018-05-07T07:41:21.379Z,14048.00
2018-05-07T07:42:21.441Z,14144.00
2018-05-07T07:43:21.529Z,14336.00
2018-05-07T07:44:21.657Z,14688.00
2018-05-07T07:45:21.742Z,15680.00
2018-05-07T07:46:21.834Z,18336.00
2018-05-07T07:47:21.858Z,22944.00
2018-05-07T07:48:22.026Z,28192.00
2018-05-07T07:49:22.034Z,34432.00
2018-05-07T07:50:22.134Z,33952.00
2018-05-07T07:51:22.202Z,37152.00
2018-05-07T07:52:22.340Z,52416.00
2018-05-07T07:53:22.365Z,64288.00
2018-05-07T07:54:22.574Z,59104.00
2018-05-07T07:55:22.558Z,52768.00
2018-05-07T07:56:22.634Z,51808.00
2018-05-07T07:57:22.694Z,49824.00
2018-05-07T07:58:22.782Z,47456.00
2018-05-07T07:59:22.991Z,46240.00
2018-05-07T08:00:22.999Z,45184.00
2018-05-07T08:01:23.023Z,43808.00
2018-05-07T08:02:23.107Z,43328.00
2018-05-07T08:03:23.187Z,42432.00
2018-05-07T08:04:23.452Z,40928.00
2018-05-07T08:05:23.386Z,39808.00
2018-05-07T08:06:23.435Z,39424.00
2018-05-07T08:07:23.553Z,38688.00
2018-05-07T08:08:23.615Z,38848.00
2018-05-07T08:09:23.723Z,38848.00
2018-05-07T08:10:23.807Z,38176.00
2018-05-07T08:11:23.855Z,38880.00
2018-05-07T08:12:23.980Z,38432.00
2018-05-07T08:13:24.019Z,38080.00
2018-05-07T08:14:24.371Z,38560.00
2018-05-07T08:15:24.207Z,38400.00
2018-05-07T08:16:24.271Z,37024.00
2018-05-07T08:17:24.359Z,36032.00
2018-05-07T08:18:24.478Z,35456.00
2018-05-07T08:19:24.527Z,34656.00
2018-05-07T08:20:24.656Z,35104.00
2018-05-07T08:21:24.735Z,34688.00
2018-05-07T08:22:24.784Z,33536.00
2018-05-07T08:23:24.871Z,33664.00
2018-05-07T08:24:24.944Z,32736.00
2018-05-07T08:25:25.034Z,32672.00
2018-05-07T08:26:25.104Z,32352.00
2018-05-07T08:27:25.196Z,32128.00
2018-05-07T08:28:25.269Z,31968.00
2018-05-07T08:29:25.357Z,32192.00
2018-05-07T08:30:25.518Z,31776.00
2018-05-07T08:31:25.520Z,31552.00
2018-05-07T08:32:25.600Z,30624.00
2018-05-07T08:33:25.684Z,29344.00
2018-05-07T08:34:25.764Z,29376.00
2018-05-07T08:35:25.861Z,30240.00
2018-05-07T08:36:26.021Z,30176.00
2018-05-07T08:37:26.021Z,29600.00
2018-05-07T08:38:26.104Z,28768.00
2018-05-07T08:39:26.181Z,25472.00
2018-05-07T08:40:26.376Z,19616.00
2018-05-07T08:41:26.349Z,15968.00
2018-05-07T08:42:26.429Z,14912.00
2018-05-07T08:43:26.513Z,14688.00
2018-05-07T08:44:26.592Z,14560.00
2018-05-07T08:45:26.689Z,14496.00
2018-05-07T08:46:26.769Z,14432.00
2018-05-07T08:47:26.845Z,14336.00
2018-05-07T08:48:26.925Z,14304.00
2018-05-07T08:49:27.009Z,14304.00
2018-05-07T08:50:27.109Z,14240.00
2018-05-07T08:51:27.180Z,14208.00
2018-05-07T08:52:27.253Z,14176.00
2018-05-07T08:53:27.337Z,14112.00
2018-05-07T08:54:27.425Z,14112.00
2018-05-07T08:55:27.509Z,14048.00
2018-05-07T08:56:27.593Z,14112.00
2018-05-07T08:57:27.666Z,14080.00
2018-05-07T08:58:27.749Z,14080.00
2018-05-07T08:59:27.831Z,14080.00
2018-05-07T09:00:27.917Z,13984.00
2018-05-07T09:01:28.006Z,13920.00
2018-05-07T09:02:28.077Z,13744.00
2018-05-07T09:03:28.157Z,13952.00
2018-05-07T09:04:28.241Z,13764.00
2018-05-07T09:05:28.385Z,13780.00
2018-05-07T09:06:28.402Z,13740.00
2018-05-07T09:07:28.486Z,13660.00
2018-05-07T09:08:28.570Z,13612.00
2018-05-07T09:09:28.646Z,13564.00
2018-05-07T09:10:28.736Z,13568.00
2018-05-07T09:11:28.814Z,13572.00
2018-05-07T09:12:28.890Z,13536.00
2018-05-07T09:13:28.970Z,13492.00
2018-05-07T09:14:29.050Z,13448.00
2018-05-07T09:15:29.146Z,13372.00
2018-05-07T09:16:29.216Z,13372.00
2018-05-07T09:17:29.298Z,13280.00
2018-05-07T09:18:29.374Z,13264.00
2018-05-07T09:19:29.454Z,13124.00
2018-05-07T09:20:29.546Z,13132.00
2018-05-07T09:21:29.623Z,13052.00
2018-05-07T09:22:29.698Z,13048.00
2018-05-07T09:23:29.782Z,13028.00
2018-05-07T09:24:29.858Z,12944.00
2018-05-07T09:25:29.942Z,12824.00
2018-05-07T09:26:30.025Z,12624.00
2018-05-07T09:27:30.102Z,12568.00
2018-05-07T09:28:30.179Z,12476.00
2018-05-07T09:29:30.259Z,12396.00
2018-05-07T09:30:30.347Z,12280.00
2018-05-07T09:31:30.649Z,12148.00
2018-05-07T09:32:30.499Z,12048.00
2018-05-07T09:33:30.574Z,12004.00
2018-05-07T09:34:30.654Z,11988.00
2018-05-07T09:35:30.735Z,11964.00
2018-05-07T09:36:30.823Z,11836.00
2018-05-07T09:37:30.903Z,11680.00
2018-05-07T09:38:30.974Z,11580.00
2018-05-07T09:39:31.051Z,11596.00
2018-05-07T09:40:31.131Z,11472.00
2018-05-07T09:41:31.222Z,11256.00
2018-05-07T09:42:31.291Z,11172.00
2018-05-07T09:43:31.367Z,11064.00
2018-05-07T09:44:31.448Z,10960.00
2018-05-07T09:45:31.527Z,10836.00
2018-05-07T09:46:31.611Z,10704.00
2018-05-07T09:47:31.691Z,10676.00
2018-05-07T09:48:31.762Z,10572.00
2018-05-07T09:49:31.839Z,10404.00
2018-05-07T09:50:31.919Z,10348.00
2018-05-07T09:51:32.003Z,10252.00
2018-05-07T09:52:32.084Z,10180.00
2018-05-07T09:53:32.206Z,10056.00
2018-05-07T09:54:32.233Z,9940.00
2018-05-07T09:55:32.312Z,9820.00
2018-05-07T09:56:32.392Z,9716.00
2018-05-07T09:57:32.472Z,9612.00
2018-05-07T09:58:32.543Z,9524.00
2018-05-07T09:59:32.620Z,9436.00
2018-05-07T10:00:32.696Z,9320.00
2018-05-07T10:01:32.784Z,9232.00
2018-05-07T10:02:32.890Z,9088.00
2018-05-07T10:03:32.932Z,8960.00
2018-05-07T10:04:33.008Z,8864.00
2018-05-07T10:05:33.085Z,8728.00
2018-05-07T10:06:33.176Z,8600.00
2018-05-07T10:07:33.240Z,8500.00
2018-05-07T10:08:33.316Z,8392.00
2018-05-07T10:09:33.392Z,8260.00
2018-05-07T10:10:33.475Z,8136.00
2018-05-07T10:11:33.556Z,8036.00
2018-05-07T10:12:33.631Z,7916.00
2018-05-07T10:13:33.700Z,7784.00
2018-05-07T10:14:33.776Z,7672.00
2018-05-07T10:15:33.856Z,7512.00
2018-05-07T10:16:33.936Z,7348.00
2018-05-07T10:17:34.019Z,7228.00
2018-05-07T10:18:34.084Z,7096.00
2018-05-07T10:19:34.164Z,6988.00
2018-05-07T10:20:34.240Z,6872.00
2018-05-07T10:21:34.317Z,6776.00
2018-05-07T10:22:34.626Z,6692.00
2018-05-07T10:23:34.507Z,6588.00
2018-05-07T10:24:34.540Z,6500.00
2018-05-07T10:25:34.616Z,6440.00
2018-05-07T10:26:34.692Z,6376.00
2018-05-07T10:27:34.773Z,6300.00
2018-05-07T10:28:34.848Z,6256.00
2018-05-07T10:29:34.921Z,6204.00
2018-05-07T10:30:34.993Z,6168.00
2018-05-07T10:31:35.360Z,6136.00
2018-05-07T10:32:35.257Z,6108.00
2018-05-07T10:33:35.221Z,6068.00
2018-05-07T10:34:35.304Z,6028.00
2018-05-07T10:35:35.369Z,5992.00
2018-05-07T10:36:35.449Z,5988.00
2018-05-07T10:37:35.525Z,5956.00
2018-05-07T10:38:35.603Z,5920.00
2018-05-07T10:39:35.669Z,5884.00
2018-05-07T10:40:35.745Z,5844.00
2018-05-07T10:41:35.821Z,5812.00
2018-05-07T10:42:35.903Z,5776.00
2018-05-07T10:43:35.976Z,5728.00
2018-05-07T10:44:36.041Z,5700.00
2018-05-07T10:45:36.117Z,5672.00
2018-05-07T10:46:36.197Z,5624.00
2018-05-07T10:47:36.427Z,5568.00
2018-05-07T10:48:36.341Z,5520.00
2018-05-07T10:49:36.417Z,5472.00
2018-05-07T10:50:36.489Z,5416.00
2018-05-07T10:51:36.565Z,5364.00
2018-05-07T10:52:36.645Z,5312.00
2018-05-07T10:53:36.717Z,5268.00
2018-05-07T10:54:36.785Z,5228.00
2018-05-07T10:55:36.861Z,5192.00
2018-05-07T10:56:36.934Z,5140.00
2018-05-07T10:57:37.014Z,5108.00
2018-05-07T10:58:37.086Z,5080.00
2018-05-07T10:59:37.158Z,5052.00
2018-05-07T11:00:37.225Z,5016.00
2018-05-07T11:01:37.374Z,4988.00
2018-05-07T11:02:37.381Z,4964.00
2018-05-07T11:03:37.457Z,4944.00
2018-05-07T11:04:37.523Z,4936.00
2018-05-07T11:05:37.593Z,4924.00
2018-05-07T11:06:37.677Z,4908.00
2018-05-07T11:07:37.774Z,4892.00
2018-05-07T11:08:37.822Z,4900.00
2018-05-07T11:09:37.890Z,4892.00
2018-05-07T11:10:37.965Z,4876.00
2018-05-07T11:11:38.038Z,4872.00
2018-05-07T11:12:38.126Z,4860.00
2018-05-07T11:13:38.258Z,4844.00
2018-05-07T11:14:38.258Z,4856.00
2018-05-07T11:15:38.330Z,4852.00
2018-05-07T11:16:38.406Z,4872.00
2018-05-07T11:17:38.486Z,4888.00
2018-05-07T11:18:38.566Z,4892.00
2018-05-07T11:19:38.629Z,4904.00
2018-05-07T11:20:38.698Z,4904.00
2018-05-07T11:21:38.774Z,4904.00
2018-05-07T11:22:38.854Z,4904.00
2018-05-07T11:23:38.926Z,4904.00
2018-05-07T11:24:38.995Z,4908.00
2018-05-07T11:25:39.066Z,4912.00
2018-05-07T11:26:39.139Z,4916.00
2018-05-07T11:27:39.366Z,4912.00
2018-05-07T11:28:39.287Z,4916.00
2018-05-07T11:29:39.363Z,4924.00
2018-05-07T11:30:39.435Z,4928.00
2018-05-07T11:31:39.511Z,4936.00
2018-05-07T11:32:39.591Z,4936.00
2018-05-07T11:33:39.662Z,4944.00
2018-05-07T11:34:39.727Z,4952.00
2018-05-07T11:35:39.802Z,4972.00
2018-05-07T11:36:39.875Z,4972.00
2018-05-07T11:37:39.955Z,4968.00
2018-05-07T11:38:40.031Z,4980.00
2018-05-07T11:39:40.099Z,4964.00
2018-05-07T11:40:40.171Z,4984.00
2018-05-07T11:41:40.247Z,4992.00
2018-05-07T11:42:40.343Z,5000.00
2018-05-07T11:43:40.392Z,4996.00
2018-05-07T11:44:40.463Z,4992.00
2018-05-07T11:45:40.539Z,5008.00
2018-05-07T11:46:40.613Z,5016.00
2018-05-07T11:47:40.752Z,5024.00
2018-05-07T11:48:40.768Z,5020.00
2018-05-07T11:49:40.831Z,5012.00
2018-05-07T11:50:40.911Z,5016.00
2018-05-07T11:51:40.980Z,5028.00
2018-05-07T11:52:41.060Z,5032.00
2018-05-07T11:53:41.135Z,5032.00
2018-05-07T11:54:41.200Z,5024.00
2018-05-07T11:55:41.279Z,5028.00
2018-05-07T11:56:41.348Z,5024.00
2018-05-07T11:57:41.428Z,5028.00
2018-05-07T11:58:41.503Z,5036.00
2018-05-07T11:59:41.568Z,5040.00
2018-05-07T12:00:41.644Z,5048.00
2018-05-07T12:01:41.716Z,5044.00
2018-05-07T12:02:41.816Z,5064.00
2018-05-07T12:03:41.876Z,5040.00
2018-05-07T12:04:41.941Z,5040.00
2018-05-07T12:05:42.012Z,5068.00
2018-05-07T12:06:42.087Z,5092.00
2018-05-07T12:07:42.182Z,5088.00
2018-05-07T12:08:42.232Z,5104.00
2018-05-07T12:09:42.313Z,5112.00
2018-05-07T12:10:42.380Z,5128.00
2018-05-07T12:11:42.449Z,5132.00
2018-05-07T12:12:42.544Z,5144.00
2018-05-07T12:13:42.609Z,5132.00
2018-05-07T12:14:42.672Z,5156.00
2018-05-07T12:15:42.825Z,5152.00
2018-05-07T12:16:42.821Z,5164.00
2018-05-07T12:17:42.901Z,5168.00
2018-05-07T12:18:42.972Z,5020.00
2018-05-07T12:19:43.041Z,5180.00
2018-05-07T12:20:43.122Z,5176.00
2018-05-07T12:21:43.188Z,5188.00
2018-05-07T12:22:43.267Z,5196.00